createdAt,value
2024-05-09T00:01:38.222Z,9.95
2024-05-09T00:04:08.854Z,9.98
2024-05-09T00:06:39.183Z,10.02
2024-05-09T00:09:12.121Z,10.04
2024-05-09T00:11:42.498Z,10.08
2024-05-09T00:14:12.810Z,10.16
2024-05-09T00:16:43.176Z,10.13
2024-05-09T00:19:13.511Z,10.22
2024-05-09T00:21:45.803Z,10.22
2024-05-09T00:24:18.763Z,10.12
2024-05-09T00:26:49.150Z,10.11
2024-05-09T00:29:19.327Z,10.05
2024-05-09T00:31:49.800Z,9.90
2024-05-09T00:34:20.162Z,9.91
2024-05-09T00:36:50.709Z,9.89
2024-05-09T00:39:23.552Z,9.94
2024-05-09T00:41:53.728Z,10.01
2024-05-09T00:44:24.080Z,10.01
2024-05-09T00:46:56.308Z,10.08
2024-05-09T00:49:28.468Z,9.98
2024-05-09T00:52:01.495Z,9.96
2024-05-09T00:54:34.566Z,10.06
2024-05-09T00:57:07.353Z,9.95
2024-05-09T00:59:38.588Z,10.04
2024-05-09T01:02:10.078Z,10.12
2024-05-09T01:04:40.495Z,10.08
2024-05-09T01:07:11.715Z,10.01
2024-05-09T01:09:44.665Z,10.02
2024-05-09T01:12:15.098Z,10.03
2024-05-09T01:14:45.712Z,9.99
2024-05-09T01:17:17.058Z,10.00
2024-05-09T01:19:47.687Z,9.92
2024-05-09T01:22:18.335Z,9.89
2024-05-09T01:24:52.135Z,9.83
2024-05-09T01:27:22.391Z,9.81
2024-05-09T01:29:52.672Z,9.92
2024-05-09T01:32:23.047Z,10.03
2024-05-09T01:34:53.402Z,9.96
2024-05-09T01:37:23.735Z,9.82
2024-05-09T01:39:56.598Z,9.77
2024-05-09T01:42:26.854Z,9.65
2024-05-09T01:44:57.052Z,9.58
2024-05-09T01:47:27.384Z,9.56
2024-05-09T01:49:57.710Z,9.57
2024-05-09T01:52:27.939Z,9.64
2024-05-09T01:55:04.660Z,9.61
2024-05-09T01:57:36.764Z,9.62
2024-05-09T02:00:10.416Z,9.65
2024-05-09T02:02:42.160Z,9.64
2024-05-09T02:05:12.592Z,9.60
2024-05-09T02:07:42.989Z,9.65
2024-05-09T02:10:20.487Z,9.64
2024-05-09T02:12:56.466Z,9.65
2024-05-09T02:15:26.833Z,9.75
2024-05-09T02:17:57.411Z,9.81
2024-05-09T02:20:34.043Z,9.83
2024-05-09T02:23:07.684Z,9.88
2024-05-09T02:25:40.814Z,9.83
2024-05-09T02:28:11.465Z,9.81
2024-05-09T02:30:42.616Z,9.79
2024-05-09T02:33:14.486Z,9.76
2024-05-09T02:35:45.526Z,9.74
2024-05-09T02:38:13.678Z,9.73
2024-05-09T02:40:46.711Z,9.76
2024-05-09T02:43:14.353Z,9.75
2024-05-09T02:45:45.287Z,9.73
2024-05-09T02:48:14.052Z,9.77
2024-05-09T02:50:45.156Z,9.66
2024-05-09T02:53:14.271Z,9.66
2024-05-09T02:55:47.621Z,9.66
2024-05-09T02:58:15.349Z,9.63
2024-05-09T03:00:45.651Z,9.64
2024-05-09T03:03:15.314Z,9.60
2024-05-09T03:05:46.999Z,9.60
2024-05-09T03:08:14.979Z,9.62
2024-05-09T03:10:48.049Z,9.64
2024-05-09T03:13:16.381Z,9.62
2024-05-09T03:15:47.023Z,9.63
2024-05-09T03:18:15.732Z,9.58
2024-05-09T03:20:46.500Z,9.57
2024-05-09T03:23:14.218Z,9.52
2024-05-09T03:25:47.231Z,9.51
2024-05-09T03:28:14.987Z,9.45
2024-05-09T03:30:45.164Z,9.47
2024-05-09T03:33:15.656Z,9.47
2024-05-09T03:35:47.162Z,9.46
2024-05-09T03:38:18.012Z,9.49
2024-05-09T03:40:52.502Z,9.50
2024-05-09T03:43:23.664Z,9.53
2024-05-09T03:45:54.039Z,9.57
2024-05-09T03:48:21.793Z,9.56
2024-05-09T03:50:52.295Z,9.57
2024-05-09T03:53:21.165Z,9.58
2024-05-09T03:55:56.977Z,9.57
2024-05-09T03:58:24.936Z,9.57
2024-05-09T04:00:55.197Z,9.65
2024-05-09T04:03:23.203Z,9.60
2024-05-09T04:05:53.617Z,9.58
2024-05-09T04:08:21.454Z,9.61
2024-05-09T04:10:54.450Z,9.59
2024-05-09T04:13:22.086Z,9.55
2024-05-09T04:15:52.356Z,9.59
2024-05-09T04:18:20.227Z,9.58
2024-05-09T04:20:50.646Z,9.57
2024-05-09T04:23:18.260Z,9.61
2024-05-09T04:25:48.674Z,9.64
2024-05-09T04:28:19.651Z,9.70
2024-05-09T04:30:50.124Z,9.73
2024-05-09T04:33:21.240Z,9.81
2024-05-09T04:35:49.629Z,9.88
2024-05-09T04:38:19.927Z,9.93
2024-05-09T04:40:47.725Z,10.00
2024-05-09T04:43:21.522Z,9.97
2024-05-09T04:45:49.172Z,9.82
2024-05-09T04:48:19.779Z,9.77
2024-05-09T04:50:47.676Z,9.63
2024-05-09T04:53:19.708Z,9.57
2024-05-09T04:55:47.635Z,9.55
2024-05-09T04:58:20.603Z,9.58
2024-05-09T05:00:48.266Z,9.60
2024-05-09T05:03:18.716Z,9.71
2024-05-09T05:05:46.934Z,9.81
2024-05-09T05:08:19.487Z,9.88
2024-05-09T05:10:48.927Z,9.90
2024-05-09T05:13:23.969Z,10.07
2024-05-09T05:15:57.765Z,10.22
2024-05-09T05:18:27.643Z,10.30
2024-05-09T05:20:59.780Z,10.43
2024-05-09T05:23:27.622Z,10.57
2024-05-09T05:25:58.235Z,10.88
2024-05-09T05:28:28.574Z,11.01
2024-05-09T05:30:58.899Z,11.25
2024-05-09T05:33:27.050Z,11.24
2024-05-09T05:35:57.774Z,11.15
2024-05-09T05:38:28.124Z,11.19
2024-05-09T05:40:59.020Z,11.23
2024-05-09T05:43:29.729Z,11.40
2024-05-09T05:46:00.001Z,11.52
2024-05-09T05:48:28.061Z,11.62
2024-05-09T05:51:00.409Z,11.87
2024-05-09T05:53:29.551Z,12.03
2024-05-09T05:55:59.948Z,12.16
2024-05-09T05:58:30.678Z,12.62
2024-05-09T06:01:00.931Z,12.96
2024-05-09T06:03:29.542Z,13.28
2024-05-09T06:06:00.081Z,13.46
2024-05-09T06:08:30.292Z,13.83
2024-05-09T06:11:01.059Z,14.17
2024-05-09T06:13:31.351Z,14.52
2024-05-09T06:16:04.935Z,14.88
2024-05-09T06:18:32.710Z,15.15
2024-05-09T06:21:03.354Z,15.04
2024-05-09T06:23:31.042Z,15.06
2024-05-09T06:26:01.454Z,15.34
2024-05-09T06:28:31.683Z,15.02
2024-05-09T06:31:04.352Z,15.29
2024-05-09T06:33:32.404Z,15.55
2024-05-09T06:36:02.964Z,15.88
2024-05-09T06:38:30.715Z,15.94
2024-05-09T06:41:01.253Z,15.99
2024-05-09T06:43:31.609Z,16.22
2024-05-09T06:46:01.906Z,16.83
2024-05-09T06:48:29.746Z,17.00
2024-05-09T06:51:00.975Z,17.12
2024-05-09T06:53:29.056Z,17.71
2024-05-09T06:55:59.484Z,18.09
2024-05-09T06:58:27.271Z,18.34
2024-05-09T07:01:00.310Z,17.83
2024-05-09T07:03:28.008Z,17.87
2024-05-09T07:05:58.394Z,18.13
2024-05-09T07:08:26.065Z,18.04
2024-05-09T07:10:56.782Z,18.29
2024-05-09T07:13:24.438Z,18.52
2024-05-09T07:15:54.748Z,17.93
2024-05-09T07:18:25.145Z,18.45
2024-05-09T07:20:55.520Z,18.13
2024-05-09T07:23:23.155Z,18.55
2024-05-09T07:25:53.642Z,18.56
2024-05-09T07:28:21.725Z,18.68
2024-05-09T07:30:52.007Z,18.50
2024-05-09T07:33:24.549Z,17.56
2024-05-09T07:35:55.465Z,18.66
2024-05-09T07:38:23.356Z,18.99
2024-05-09T07:40:53.693Z,19.49
2024-05-09T07:43:21.520Z,19.71
2024-05-09T07:45:54.414Z,19.68
2024-05-09T07:50:00.288Z,19.88
2024-05-09T07:53:52.113Z,19.93
2024-05-09T07:56:26.056Z,20.04
2024-05-09T07:58:54.439Z,20.24
2024-05-09T08:01:26.506Z,20.48
2024-05-09T08:03:57.806Z,21.09
2024-05-09T08:06:28.939Z,21.05
2024-05-09T08:08:57.850Z,21.11
2024-05-09T08:11:30.100Z,20.94
2024-05-09T08:13:57.657Z,21.12
2024-05-09T08:16:28.807Z,21.51
2024-05-09T08:18:59.237Z,21.18
2024-05-09T08:21:29.833Z,21.72
2024-05-09T08:23:57.618Z,22.17
2024-05-09T08:26:27.890Z,22.02
2024-05-09T08:28:55.462Z,22.44
2024-05-09T08:31:25.827Z,21.68
2024-05-09T08:33:54.702Z,21.76
2024-05-09T08:36:27.721Z,21.69
2024-05-09T08:38:57.138Z,21.82
2024-05-09T08:41:28.673Z,22.76
2024-05-09T08:43:56.366Z,22.93
2024-05-09T08:46:30.388Z,23.16
2024-05-09T08:49:00.867Z,23.83
2024-05-09T08:51:33.979Z,23.73
2024-05-09T08:54:01.632Z,23.85
2024-05-09T08:56:36.667Z,23.01
2024-05-09T08:59:13.572Z,23.25
2024-05-09T09:01:44.769Z,23.25
2024-05-09T09:04:15.885Z,20.26
2024-05-09T09:06:49.549Z,20.33
2024-05-09T09:09:17.498Z,19.26
2024-05-09T09:11:47.651Z,19.30
2024-05-09T09:14:15.240Z,19.09
2024-05-09T09:16:46.066Z,18.20
2024-05-09T09:19:14.781Z,17.83
2024-05-09T09:21:48.500Z,18.47
2024-05-09T09:24:16.204Z,20.55
2024-05-09T09:26:48.795Z,19.35
2024-05-09T09:29:20.713Z,19.48
2024-05-09T09:32:01.525Z,21.60
2024-05-09T09:34:30.391Z,20.18
2024-05-09T09:37:08.335Z,18.48
2024-05-09T09:39:38.583Z,18.26
2024-05-09T09:42:09.421Z,20.84
2024-05-09T09:44:42.112Z,21.95
2024-05-09T09:47:15.330Z,21.43
2024-05-09T09:49:45.582Z,22.34
2024-05-09T09:52:19.246Z,22.57
2024-05-09T09:54:48.780Z,23.15
2024-05-09T09:57:22.819Z,24.26
2024-05-09T09:59:52.636Z,23.92
2024-05-09T10:02:23.147Z,23.89
2024-05-09T10:04:51.719Z,24.88
2024-05-09T10:07:27.662Z,24.63
2024-05-09T10:09:56.511Z,24.72
2024-05-09T10:12:27.338Z,25.38
2024-05-09T10:14:55.279Z,24.96
2024-05-09T10:17:25.727Z,24.06
2024-05-09T10:20:14.373Z,23.77
2024-05-09T10:22:53.813Z,25.07
2024-05-09T10:25:21.791Z,24.14
2024-05-09T10:27:58.449Z,21.61
2024-05-09T10:30:34.078Z,22.27
2024-05-09T10:33:06.620Z,22.76
2024-05-09T10:35:34.163Z,23.01
2024-05-09T10:38:10.979Z,21.14
2024-05-09T10:40:40.138Z,19.87
2024-05-09T10:43:11.937Z,19.33
2024-05-09T10:45:39.686Z,19.76
2024-05-09T10:48:12.034Z,19.99
2024-05-09T10:50:43.844Z,19.97
2024-05-09T10:53:17.372Z,20.22
2024-05-09T10:55:56.530Z,20.57
2024-05-09T10:58:26.919Z,19.60
2024-05-09T11:00:55.780Z,19.19
2024-05-09T11:03:27.413Z,19.34
2024-05-09T11:05:56.306Z,21.59
2024-05-09T11:08:30.448Z,22.51
2024-05-09T11:10:59.684Z,23.59
2024-05-09T11:13:31.143Z,23.95
2024-05-09T11:16:00.056Z,21.77
2024-05-09T11:18:36.690Z,21.40
2024-05-09T11:21:13.997Z,21.40
2024-05-09T11:23:47.117Z,22.75
2024-05-09T11:26:19.330Z,24.12
2024-05-09T11:28:50.888Z,23.75
2024-05-09T11:31:19.166Z,21.61
2024-05-09T11:33:49.713Z,23.09
2024-05-09T11:36:17.564Z,24.04
2024-05-09T11:38:50.478Z,24.08
2024-05-09T11:41:19.115Z,23.05
2024-05-09T11:43:49.446Z,21.61
2024-05-09T11:46:17.242Z,20.80
2024-05-09T11:48:48.284Z,21.00
2024-05-09T11:51:15.989Z,23.39
2024-05-09T11:53:46.148Z,24.77
2024-05-09T11:56:17.585Z,25.86
2024-05-09T11:58:47.879Z,26.18
2024-05-09T12:01:15.472Z,25.52
2024-05-09T12:03:49.390Z,24.64
2024-05-09T12:06:17.663Z,24.91
2024-05-09T12:08:47.863Z,25.07
2024-05-09T12:11:18.056Z,24.30
2024-05-09T12:13:48.366Z,25.21
2024-05-09T12:16:16.399Z,26.36
2024-05-09T12:18:46.942Z,25.95
2024-05-09T12:21:17.490Z,26.74
2024-05-09T12:23:47.767Z,26.13
2024-05-09T12:26:18.082Z,24.32
2024-05-09T12:28:48.435Z,23.96
2024-05-09T12:31:15.966Z,22.84
2024-05-09T12:33:46.703Z,22.34
2024-05-09T12:36:14.367Z,21.54
2024-05-09T12:38:44.583Z,20.90
2024-05-09T12:41:12.196Z,20.46
2024-05-09T12:43:45.120Z,20.55
2024-05-09T12:46:12.997Z,20.37
2024-05-09T12:48:43.501Z,22.12
2024-05-09T12:51:11.263Z,25.11
2024-05-09T12:53:41.659Z,24.24
2024-05-09T12:56:09.714Z,25.63
2024-05-09T12:58:40.628Z,25.65
2024-05-09T13:01:11.017Z,26.42
2024-05-09T13:03:41.300Z,24.93
2024-05-09T13:06:09.169Z,22.31
2024-05-09T13:08:39.820Z,22.03
2024-05-09T13:11:08.352Z,22.49
2024-05-09T13:13:38.681Z,24.47
2024-05-09T13:16:09.775Z,27.03
2024-05-09T13:18:40.581Z,26.00
2024-05-09T13:21:08.317Z,24.39
2024-05-09T13:23:38.646Z,23.30
2024-05-09T13:26:06.258Z,21.85
2024-05-09T13:28:36.769Z,21.08
2024-05-09T13:31:04.615Z,20.30
2024-05-09T13:33:37.928Z,20.21
2024-05-09T13:36:07.252Z,20.08
2024-05-09T13:38:37.470Z,21.39
2024-05-09T13:41:05.365Z,22.04
2024-05-09T13:43:35.629Z,22.13
2024-05-09T13:46:03.915Z,23.13
2024-05-09T13:48:37.373Z,24.60
2024-05-09T13:51:05.877Z,24.98
2024-05-09T13:53:36.331Z,23.93
2024-05-09T13:56:04.460Z,24.59
2024-05-09T13:58:34.858Z,24.64
2024-05-09T14:01:02.513Z,25.51
2024-05-09T14:03:33.095Z,25.67
2024-05-09T14:06:03.847Z,25.39
2024-05-09T14:08:34.634Z,26.01
2024-05-09T14:11:02.516Z,26.20
2024-05-09T14:13:32.934Z,26.00
2024-05-09T14:16:00.828Z,24.70
2024-05-09T14:18:31.874Z,22.96
2024-05-09T14:20:59.620Z,22.26
2024-05-09T14:23:32.748Z,23.58
2024-05-09T14:26:00.349Z,23.11
2024-05-09T14:28:31.146Z,22.17
2024-05-09T14:31:00.488Z,22.19
2024-05-09T14:33:31.677Z,20.95
2024-05-09T14:35:59.554Z,21.45
2024-05-09T14:38:33.089Z,21.65
2024-05-09T14:41:00.799Z,23.05
2024-05-09T14:43:31.714Z,24.61
2024-05-09T14:45:59.516Z,25.38
2024-05-09T14:48:31.042Z,25.34
2024-05-09T14:51:14.172Z,24.74
2024-05-09T14:53:47.139Z,25.09
2024-05-09T14:56:14.954Z,25.01
2024-05-09T14:58:45.342Z,24.41
2024-05-09T15:01:13.002Z,23.44
2024-05-09T15:03:43.350Z,22.21
2024-05-09T15:06:11.074Z,21.04
2024-05-09T15:08:42.143Z,20.80
2024-05-09T15:11:12.531Z,22.15
2024-05-09T15:13:42.897Z,23.50
2024-05-09T15:16:10.678Z,24.49
2024-05-09T15:18:44.152Z,24.56
2024-05-09T15:21:11.974Z,24.45
2024-05-09T15:23:42.641Z,23.71
2024-05-09T15:26:12.928Z,23.11
2024-05-09T15:28:44.146Z,21.75
2024-05-09T15:31:11.795Z,19.95
2024-05-09T15:33:42.766Z,19.44
2024-05-09T15:36:10.917Z,18.89
2024-05-09T15:38:41.942Z,18.50
2024-05-09T15:41:13.517Z,18.22
2024-05-09T15:43:43.680Z,18.99
2024-05-09T15:46:12.160Z,20.60
2024-05-09T15:48:44.823Z,22.00
2024-05-09T15:51:12.775Z,22.77
2024-05-09T15:53:42.916Z,22.22
2024-05-09T15:56:13.432Z,22.52
2024-05-09T15:58:43.797Z,22.81
2024-05-09T16:01:12.676Z,22.54
2024-05-09T16:03:43.186Z,22.19
2024-05-09T16:06:11.012Z,21.58
2024-05-09T16:08:41.673Z,21.86
2024-05-09T16:11:13.302Z,21.56
2024-05-09T16:13:43.575Z,21.96
2024-05-09T16:16:11.563Z,22.51
2024-05-09T16:18:41.894Z,21.45
2024-05-09T16:21:09.740Z,20.73
2024-05-09T16:23:40.942Z,20.51
2024-05-09T16:26:08.500Z,19.40
2024-05-09T16:28:41.426Z,18.64
2024-05-09T16:31:08.986Z,18.27
2024-05-09T16:33:40.472Z,17.89
2024-05-09T16:36:08.568Z,17.73
2024-05-09T16:38:40.060Z,17.67
2024-05-09T16:41:08.745Z,17.65
2024-05-09T16:43:42.030Z,17.29
2024-05-09T16:46:10.014Z,17.54
2024-05-09T16:48:40.905Z,17.56
2024-05-09T16:51:08.917Z,17.48
2024-05-09T16:53:39.183Z,17.43
2024-05-09T16:56:07.828Z,17.49
2024-05-09T16:58:40.945Z,17.54
2024-05-09T17:01:08.798Z,17.53
2024-05-09T17:03:39.256Z,17.71
2024-05-09T17:06:07.408Z,17.94
2024-05-09T17:08:37.908Z,17.90
2024-05-09T17:11:05.773Z,18.12
2024-05-09T17:13:39.333Z,18.06
2024-05-09T17:16:13.664Z,17.80
2024-05-09T17:18:44.200Z,17.67
2024-05-09T17:21:11.796Z,17.46
2024-05-09T17:23:42.551Z,17.29
2024-05-09T17:26:10.603Z,17.24
2024-05-09T17:28:41.012Z,17.00
2024-05-09T17:31:11.450Z,16.89
2024-05-09T17:33:42.872Z,16.68
2024-05-09T17:36:13.319Z,16.58
2024-05-09T17:38:41.073Z,16.39
2024-05-09T17:41:11.380Z,16.36
2024-05-09T17:43:39.001Z,16.16
2024-05-09T17:46:09.902Z,15.77
2024-05-09T17:48:40.385Z,15.76
2024-05-09T17:51:10.640Z,15.88
2024-05-09T17:53:40.130Z,15.78
2024-05-09T17:56:11.221Z,15.57
2024-05-09T17:58:38.930Z,15.31
2024-05-09T18:01:09.304Z,15.29
2024-05-09T18:03:40.061Z,15.02
2024-05-09T18:06:11.315Z,14.76
2024-05-09T18:08:38.868Z,14.54
2024-05-09T18:11:09.706Z,14.19
2024-05-09T18:13:37.651Z,14.01
2024-05-09T18:16:08.954Z,13.71
2024-05-09T18:18:39.524Z,13.41
2024-05-09T18:21:10.062Z,13.18
2024-05-09T18:23:37.633Z,13.01
2024-05-09T18:26:08.697Z,12.99
2024-05-09T18:28:36.379Z,12.86
2024-05-09T18:31:06.828Z,12.81
2024-05-09T18:33:34.702Z,12.60
2024-05-09T18:36:08.046Z,12.53
2024-05-09T18:38:36.076Z,12.37
2024-05-09T18:41:07.847Z,12.36
2024-05-09T18:43:42.184Z,12.29
2024-05-09T18:46:15.948Z,12.10
2024-05-09T18:48:43.882Z,11.90
2024-05-09T18:51:17.101Z,11.96
2024-05-09T18:53:45.209Z,11.86
2024-05-09T18:56:15.526Z,11.84
2024-05-09T18:58:43.502Z,11.75
2024-05-09T19:01:14.594Z,11.73
2024-05-09T19:03:43.018Z,11.70
2024-05-09T19:06:17.313Z,11.58
2024-05-09T19:08:45.863Z,11.54
2024-05-09T19:11:16.242Z,11.70
2024-05-09T19:13:44.179Z,11.87
2024-05-09T19:16:14.650Z,11.99
2024-05-09T19:18:42.653Z,11.90
2024-05-09T19:21:14.367Z,11.68
2024-05-09T19:23:50.811Z,11.28
2024-05-09T19:26:25.279Z,11.22
2024-05-09T19:28:53.492Z,11.28
2024-05-09T19:31:24.166Z,11.19
2024-05-09T19:33:52.068Z,11.12
2024-05-09T19:36:22.559Z,11.13
2024-05-09T19:38:53.219Z,10.88
2024-05-09T19:41:23.930Z,10.68
2024-05-09T19:43:51.600Z,10.44
2024-05-09T19:46:27.043Z,10.35
2024-05-09T19:48:55.647Z,10.40
2024-05-09T19:51:26.119Z,10.47
2024-05-09T19:53:56.356Z,10.39
2024-05-09T19:56:27.411Z,10.42
2024-05-09T19:58:55.258Z,10.55
2024-05-09T20:01:25.536Z,10.62
2024-05-09T20:03:53.467Z,10.53
2024-05-09T20:06:26.347Z,10.41
2024-05-09T20:08:58.359Z,10.48
2024-05-09T20:11:30.830Z,10.71
2024-05-09T20:13:58.707Z,10.94
2024-05-09T20:16:29.135Z,10.86
2024-05-09T20:18:59.711Z,10.79
2024-05-09T20:21:30.115Z,10.70
2024-05-09T20:24:00.525Z,10.37
2024-05-09T20:26:31.270Z,10.26
2024-05-09T20:28:58.970Z,10.04
2024-05-09T20:31:29.383Z,10.00
2024-05-09T20:33:57.320Z,9.90
2024-05-09T20:36:27.661Z,9.79
2024-05-09T20:38:55.385Z,9.83
2024-05-09T20:41:28.363Z,10.05
2024-05-09T20:43:58.211Z,10.27
2024-05-09T20:46:28.465Z,10.22
2024-05-09T20:48:56.711Z,10.24
2024-05-09T20:51:27.677Z,10.18
2024-05-09T20:53:58.487Z,10.04
2024-05-09T20:56:28.794Z,9.86
2024-05-09T20:59:00.591Z,9.75
2024-05-09T21:01:28.484Z,9.64
2024-05-09T21:03:58.998Z,9.59
2024-05-09T21:06:26.783Z,9.62
2024-05-09T21:08:58.472Z,9.56
2024-05-09T21:11:28.766Z,9.41
2024-05-09T21:13:59.072Z,9.38
2024-05-09T21:16:26.823Z,9.36
2024-05-09T21:18:57.062Z,9.39
2024-05-09T21:21:24.725Z,9.55
2024-05-09T21:23:54.988Z,9.45
2024-05-09T21:26:23.898Z,9.40
2024-05-09T21:28:57.132Z,9.42
2024-05-09T21:31:24.757Z,9.29
2024-05-09T21:33:55.212Z,9.23
2024-05-09T21:36:23.103Z,9.24
2024-05-09T21:38:53.258Z,9.31
2024-05-09T21:41:22.295Z,9.35
2024-05-09T21:43:52.508Z,9.30
2024-05-09T21:46:22.726Z,9.16
2024-05-09T21:48:53.162Z,9.04
2024-05-09T21:51:20.850Z,8.86
2024-05-09T21:53:51.812Z,8.71
2024-05-09T21:56:19.481Z,8.63
2024-05-09T21:58:49.727Z,8.38
2024-05-09T22:01:17.592Z,8.17
2024-05-09T22:03:50.772Z,8.23
2024-05-09T22:06:18.487Z,8.26
2024-05-09T22:08:48.885Z,8.25
2024-05-09T22:11:16.508Z,8.38
2024-05-09T22:13:46.926Z,8.61
2024-05-09T22:16:14.642Z,8.74
2024-05-09T22:18:45.713Z,8.67
2024-05-09T22:21:15.955Z,8.56
2024-05-09T22:23:46.180Z,8.37
2024-05-09T22:26:13.706Z,8.26
2024-05-09T22:28:44.151Z,8.08
2024-05-09T22:31:11.867Z,7.93
2024-05-09T22:33:45.538Z,8.05
2024-05-09T22:36:17.382Z,8.20
2024-05-09T22:38:47.534Z,8.32
2024-05-09T22:41:15.137Z,8.38
2024-05-09T22:43:45.464Z,8.39
2024-05-09T22:46:13.311Z,8.38
2024-05-09T22:48:43.937Z,8.30
2024-05-09T22:51:13.199Z,8.20
2024-05-09T22:53:46.036Z,8.08
2024-05-09T22:56:15.938Z,8.03
2024-05-09T22:58:46.248Z,8.08
2024-05-09T23:01:16.080Z,8.04
2024-05-09T23:03:46.770Z,7.88
2024-05-09T23:06:14.841Z,7.71
2024-05-09T23:08:47.990Z,7.64
2024-05-09T23:11:18.202Z,7.55
2024-05-09T23:13:45.870Z,7.53
2024-05-09T23:16:16.241Z,7.54
2024-05-09T23:18:44.063Z,7.57
2024-05-09T23:21:14.365Z,7.58
2024-05-09T23:23:45.702Z,7.51
2024-05-09T23:26:15.959Z,7.47
2024-05-09T23:28:44.037Z,7.45
2024-05-09T23:31:14.260Z,7.27
2024-05-09T23:33:46.494Z,7.08
2024-05-09T23:36:17.141Z,7.13
2024-05-09T23:38:47.564Z,7.24
2024-05-09T23:41:17.835Z,7.37
2024-05-09T23:43:45.534Z,7.48
2024-05-09T23:46:15.966Z,7.63
2024-05-09T23:48:43.844Z,7.66
2024-05-09T23:51:14.459Z,7.64
2024-05-09T23:53:47.601Z,7.45
2024-05-09T23:56:18.742Z,7.61
2024-05-09T23:58:47.306Z,7.56
